Time;durP1;ratioP1;P1;durP2;ratioP2;P2;SDS_P1;SDS_P2;PMS_P1;PMS_P2;Temp;Humidity;BMP_temperature;BMP_pressure;BME280_temperature;BME280_humidity;BME280_pressure;Samples;Min_cycle;Max_cycle;Signal;HPM_P1;HPM_P2
2023/08/28 00:01:17;;;;;;;4.83;4.43;;;;;;;;;;5113686;28;20223;-71
2023/08/28 00:03:44;;;;;;;6.23;4.13;;;;;;;;;;5113805;28;20696;-71
2023/08/28 00:06:11;;;;;;;5.40;4.57;;;;;;;;;;5113122;28;20203;-71
2023/08/28 00:08:38;;;;;;;4.83;4.37;;;;;;;;;;5114036;28;20227;-71
2023/08/28 00:11:04;;;;;;;13.47;4.60;;;;;;;;;;5113522;28;20656;-71
2023/08/28 00:13:33;;;;;;;6.17;4.30;;;;;;;;;;5110330;28;20665;-70
2023/08/28 00:15:59;;;;;;;6.10;4.53;;;;;;;;;;5095501;28;20195;-70
2023/08/28 00:18:26;;;;;;;6.23;4.30;;;;;;;;;;5113147;28;20199;-71
2023/08/28 00:20:53;;;;;;;4.77;4.13;;;;;;;;;;5113489;28;20280;-71
2023/08/28 00:23:20;;;;;;;8.77;4.77;;;;;;;;;;5113211;28;20245;-71
2023/08/28 00:25:46;;;;;;;5.20;4.20;;;;;;;;;;5113285;28;20203;-71
2023/08/28 00:28:13;;;;;;;7.83;4.60;;;;;;;;;;5113094;28;20223;-71
2023/08/28 00:30:41;;;;;;;6.40;4.83;;;;;;;;;;5113701;28;20256;-71
2023/08/28 00:33:08;;;;;;;4.87;4.33;;;;;;;;;;5113318;28;20203;-70
2023/08/28 00:35:35;;;;;;;5.50;4.90;;;;;;;;;;5112592;28;20203;-71
2023/08/28 00:38:02;;;;;;;5.63;4.50;;;;;;;;;;5113230;28;20201;-70
2023/08/28 00:40:28;;;;;;;7.13;4.83;;;;;;;;;;5113510;28;20241;-71
2023/08/28 00:42:55;;;;;;;8.27;4.67;;;;;;;;;;5112709;28;20688;-71
2023/08/28 00:45:22;;;;;;;6.30;4.77;;;;;;;;;;5112329;28;20196;-71
2023/08/28 00:47:50;;;;;;;10.03;5.30;;;;;;;;;;5113095;28;20203;-71
2023/08/28 00:50:17;;;;;;;7.23;4.90;;;;;;;;;;5112719;28;20203;-71
2023/08/28 00:52:44;;;;;;;7.87;4.00;;;;;;;;;;5113148;28;20688;-71
2023/08/28 00:55:11;;;;;;;5.73;4.90;;;;;;;;;;5112983;28;20207;-71
2023/08/28 00:57:38;;;;;;;6.23;4.50;;;;;;;;;;5113026;28;20202;-71
2023/08/28 01:00:06;;;;;;;5.13;4.70;;;;;;;;;;5112798;28;20692;-71
2023/08/28 01:02:33;;;;;;;6.40;5.13;;;;;;;;;;5112411;28;20235;-70
2023/08/28 01:05:02;;;;;;;5.93;5.40;;;;;;;;;;5112584;28;20203;-71
2023/08/28 01:07:35;;;;;;;6.07;5.47;;;;;;;;;;5112737;28;20254;-71
2023/08/28 01:10:06;;;;;;;6.57;5.20;;;;;;;;;;5112490;28;20690;-71
2023/08/28 01:12:39;;;;;;;5.30;4.83;;;;;;;;;;5112689;28;20200;-70
2023/08/28 01:15:10;;;;;;;5.67;5.17;;;;;;;;;;5112238;28;20726;-71
2023/08/28 01:17:37;;;;;;;4.40;4.00;;;;;;;;;;5112297;28;20210;-71
2023/08/28 01:20:08;;;;;;;5.00;4.57;;;;;;;;;;5112505;28;20248;-71
2023/08/28 01:22:40;;;;;;;4.77;4.37;;;;;;;;;;5111958;28;20253;-71
2023/08/28 01:25:10;;;;;;;5.97;4.50;;;;;;;;;;5112327;28;20731;-71
2023/08/28 01:27:37;;;;;;;11.47;5.20;;;;;;;;;;5111535;28;20454;-71
2023/08/28 01:30:12;;;;;;;4.87;4.47;;;;;;;;;;5112747;28;20286;-71
2023/08/28 01:32:39;;;;;;;6.47;4.80;;;;;;;;;;5111462;28;20211;-71
2023/08/28 01:35:09;;;;;;;5.47;4.93;;;;;;;;;;5112228;28;20196;-71
2023/08/28 01:37:43;;;;;;;8.07;5.27;;;;;;;;;;5112251;28;20264;-71
2023/08/28 01:40:14;;;;;;;5.70;5.10;;;;;;;;;;5112046;28;20717;-71
2023/08/28 01:42:42;;;;;;;4.87;4.43;;;;;;;;;;5111515;28;20597;-71
2023/08/28 01:45:09;;;;;;;9.07;4.80;;;;;;;;;;5111935;28;20198;-71
2023/08/28 01:47:36;;;;;;;4.97;4.57;;;;;;;;;;5111606;28;20198;-71
2023/08/28 01:50:03;;;;;;;8.27;5.43;;;;;;;;;;5111755;28;20206;-71
2023/08/28 01:52:29;;;;;;;9.90;4.87;;;;;;;;;;5111288;28;20196;-71
2023/08/28 01:54:56;;;;;;;4.93;4.37;;;;;;;;;;5111589;28;20574;-71
2023/08/28 01:57:24;;;;;;;5.63;3.80;;;;;;;;;;5111582;28;20206;-71
2023/08/28 01:59:51;;;;;;;7.77;4.90;;;;;;;;;;5111994;28;20257;-71
2023/08/28 02:02:18;;;;;;;9.53;4.90;;;;;;;;;;5111956;28;20223;-71
2023/08/28 02:04:45;;;;;;;5.83;4.70;;;;;;;;;;5111685;28;20207;-71
2023/08/28 02:07:11;;;;;;;8.17;6.40;;;;;;;;;;5111819;28;20192;-71
2023/08/28 02:09:38;;;;;;;6.03;4.90;;;;;;;;;;5111773;28;20222;-71
2023/08/28 02:12:06;;;;;;;5.20;4.73;;;;;;;;;;5111103;28;20238;-71
2023/08/28 02:14:34;;;;;;;10.30;4.57;;;;;;;;;;5111441;28;21026;-71
2023/08/28 02:17:01;;;;;;;10.30;4.83;;;;;;;;;;5102470;28;20203;-71
2023/08/28 02:19:27;;;;;;;21.47;5.43;;;;;;;;;;5107199;28;20206;-71
2023/08/28 02:21:54;;;;;;;9.13;5.67;;;;;;;;;;5111459;28;20347;-71
2023/08/28 02:24:21;;;;;;;6.53;4.60;;;;;;;;;;5110849;28;20565;-71
2023/08/28 02:26:48;;;;;;;5.30;4.07;;;;;;;;;;5111729;28;20207;-71
2023/08/28 02:29:14;;;;;;;4.23;3.80;;;;;;;;;;5111197;28;20602;-71
2023/08/28 02:31:42;;;;;;;5.70;4.60;;;;;;;;;;5110788;28;20211;-71
2023/08/28 02:34:09;;;;;;;6.47;4.83;;;;;;;;;;5110807;28;20643;-71
2023/08/28 02:36:36;;;;;;;4.97;4.67;;;;;;;;;;5110976;28;20199;-71
2023/08/28 02:39:04;;;;;;;8.77;5.33;;;;;;;;;;5110376;28;20206;-71
2023/08/28 02:41:31;;;;;;;4.67;4.27;;;;;;;;;;5111309;28;20284;-71
2023/08/28 02:43:57;;;;;;;6.17;4.93;;;;;;;;;;5110988;28;20206;-71
2023/08/28 02:46:24;;;;;;;6.00;5.40;;;;;;;;;;5111385;28;20207;-71
2023/08/28 02:48:52;;;;;;;7.40;4.33;;;;;;;;;;5111319;28;20191;-71
2023/08/28 02:51:19;;;;;;;5.47;4.17;;;;;;;;;;5108603;28;20203;-71
2023/08/28 02:53:46;;;;;;;5.20;4.80;;;;;;;;;;5082495;28;20222;-71
2023/08/28 02:56:23;;;;;;;6.93;4.80;;;;;;;;;;5105277;28;20207;-71
2023/08/28 02:58:50;;;;;;;5.10;4.67;;;;;;;;;;5111061;28;20253;-71
2023/08/28 03:01:17;;;;;;;5.30;4.67;;;;;;;;;;5110629;28;20334;-71
2023/08/28 03:03:44;;;;;;;4.73;4.23;;;;;;;;;;5106090;28;20207;-71
2023/08/28 03:06:12;;;;;;;5.23;4.57;;;;;;;;;;5108273;28;20223;-71
2023/08/28 03:08:39;;;;;;;6.13;4.27;;;;;;;;;;5110598;28;20566;-71
2023/08/28 03:11:05;;;;;;;5.13;4.63;;;;;;;;;;5110627;28;20195;-71
2023/08/28 03:13:32;;;;;;;4.40;4.00;;;;;;;;;;5110997;28;20226;-71
2023/08/28 03:15:59;;;;;;;7.43;5.10;;;;;;;;;;5110153;28;20215;-71
2023/08/28 03:18:26;;;;;;;5.30;4.80;;;;;;;;;;5111215;28;20204;-71
2023/08/28 03:20:52;;;;;;;5.13;4.63;;;;;;;;;;5110498;28;20196;-71
2023/08/28 03:23:20;;;;;;;5.13;4.73;;;;;;;;;;5110770;28;20234;-71
2023/08/28 03:25:47;;;;;;;8.73;5.00;;;;;;;;;;5106146;28;20257;-71
2023/08/28 03:28:14;;;;;;;5.53;5.00;;;;;;;;;;5109947;28;20702;-71
2023/08/28 03:30:41;;;;;;;6.47;4.20;;;;;;;;;;5110133;28;20253;-71
2023/08/28 03:33:08;;;;;;;6.30;4.57;;;;;;;;;;5083951;28;20203;-71
2023/08/28 03:35:35;;;;;;;10.40;5.10;;;;;;;;;;5095222;28;20291;-71
2023/08/28 03:38:02;;;;;;;4.83;4.27;;;;;;;;;;5106287;28;20289;-71
2023/08/28 03:40:30;;;;;;;6.43;4.70;;;;;;;;;;5099542;28;20207;-71
2023/08/28 03:42:57;;;;;;;5.03;4.53;;;;;;;;;;5109211;28;20223;-71
2023/08/28 03:45:23;;;;;;;8.20;4.90;;;;;;;;;;5109959;28;20214;-72
2023/08/28 03:47:50;;;;;;;5.33;4.83;;;;;;;;;;5109479;28;20202;-71
2023/08/28 03:50:17;;;;;;;7.27;5.90;;;;;;;;;;5110504;28;20199;-72
2023/08/28 03:52:44;;;;;;;5.97;4.60;;;;;;;;;;5113164;28;20199;-71
2023/08/28 03:55:11;;;;;;;7.27;4.90;;;;;;;;;;5113710;28;20705;-71
2023/08/28 03:57:39;;;;;;;5.37;4.70;;;;;;;;;;5113708;28;20199;-71
2023/08/28 04:00:12;;;;;;;5.40;4.90;;;;;;;;;;5108471;28;20197;-71
2023/08/28 04:02:39;;;;;;;4.43;4.07;;;;;;;;;;5104815;28;20266;-71
2023/08/28 04:05:07;;;;;;;6.10;5.50;;;;;;;;;;5114033;28;20195;-71
2023/08/28 04:07:34;;;;;;;14.97;4.90;;;;;;;;;;5113548;28;20200;-71
2023/08/28 04:10:01;;;;;;;11.07;5.53;;;;;;;;;;5113420;28;20203;-70
2023/08/28 04:12:28;;;;;;;8.53;5.10;;;;;;;;;;5096607;28;20253;-72
2023/08/28 04:14:57;;;;;;;7.60;5.70;;;;;;;;;;5113934;28;20679;-75
2023/08/28 04:17:24;;;;;;;12.57;6.97;;;;;;;;;;5113450;28;20191;-75
2023/08/28 04:19:52;;;;;;;8.77;6.10;;;;;;;;;;5113935;28;20261;-75
2023/08/28 04:22:19;;;;;;;5.70;4.77;;;;;;;;;;5113395;28;20222;-74
2023/08/28 04:24:46;;;;;;;8.07;4.90;;;;;;;;;;5113356;28;20207;-74
2023/08/28 04:27:13;;;;;;;8.50;6.17;;;;;;;;;;5112623;28;20260;-87
2023/08/28 04:29:41;;;;;;;8.93;5.33;;;;;;;;;;5113286;28;20204;-76
2023/08/28 04:32:09;;;;;;;5.57;5.17;;;;;;;;;;5113630;28;20195;-76
2023/08/28 04:34:36;;;;;;;6.87;4.90;;;;;;;;;;5113247;28;20619;-75
2023/08/28 04:37:03;;;;;;;5.07;4.47;;;;;;;;;;5113513;28;20203;-75
2023/08/28 04:39:32;;;;;;;5.47;4.97;;;;;;;;;;5113083;28;20211;-76
2023/08/28 04:41:58;;;;;;;9.30;5.13;;;;;;;;;;5113004;28;20275;-76
2023/08/28 04:44:25;;;;;;;17.07;6.83;;;;;;;;;;5111515;28;20196;-75
2023/08/28 04:46:53;;;;;;;7.70;5.10;;;;;;;;;;5087217;28;20585;-76
2023/08/28 04:49:21;;;;;;;5.17;4.57;;;;;;;;;;5112146;28;20192;-75
2023/08/28 04:51:48;;;;;;;7.70;4.40;;;;;;;;;;5110532;28;20569;-75
2023/08/28 04:54:15;;;;;;;4.87;4.37;;;;;;;;;;5112837;28;20769;-76
2023/08/28 04:56:41;;;;;;;5.13;4.73;;;;;;;;;;5111793;28;20204;-76
2023/08/28 04:59:08;;;;;;;5.00;4.60;;;;;;;;;;5111607;28;20252;-76
2023/08/28 05:01:35;;;;;;;5.93;4.63;;;;;;;;;;5111738;28;20223;-76
2023/08/28 05:04:02;;;;;;;6.13;4.87;;;;;;;;;;5113085;28;20199;-75
2023/08/28 05:06:31;;;;;;;5.90;5.13;;;;;;;;;;5112508;28;20294;-76
2023/08/28 05:08:57;;;;;;;8.53;5.53;;;;;;;;;;5113012;28;20206;-76
2023/08/28 05:11:24;;;;;;;6.03;5.53;;;;;;;;;;5112503;28;20268;-76
2023/08/28 05:13:51;;;;;;;6.27;5.07;;;;;;;;;;5112776;28;20291;-76
2023/08/28 05:16:18;;;;;;;11.47;4.73;;;;;;;;;;5112260;28;20674;-76
2023/08/28 05:18:45;;;;;;;9.07;6.97;;;;;;;;;;5112686;28;20191;-76
2023/08/28 05:21:11;;;;;;;5.67;5.17;;;;;;;;;;5111965;28;20203;-76
2023/08/28 05:23:40;;;;;;;9.73;6.00;;;;;;;;;;5112520;28;20276;-76
2023/08/28 05:26:07;;;;;;;5.87;4.50;;;;;;;;;;5112135;28;20446;-76
2023/08/28 05:28:35;;;;;;;8.47;6.20;;;;;;;;;;5112636;28;20231;-76
2023/08/28 05:31:02;;;;;;;5.23;4.70;;;;;;;;;;5112275;28;20268;-76
2023/08/28 05:33:29;;;;;;;6.90;5.07;;;;;;;;;;5111965;28;20704;-76
2023/08/28 05:35:56;;;;;;;8.73;5.87;;;;;;;;;;5111708;28;20223;-76
2023/08/28 05:38:23;;;;;;;5.20;4.80;;;;;;;;;;5112792;28;20192;-76
2023/08/28 05:40:53;;;;;;;4.90;4.40;;;;;;;;;;5111472;28;20210;-76
2023/08/28 05:43:20;;;;;;;4.97;4.17;;;;;;;;;;5111765;28;20231;-76
2023/08/28 05:45:47;;;;;;;6.43;5.50;;;;;;;;;;5111393;28;20248;-76
2023/08/28 05:48:14;;;;;;;4.73;4.33;;;;;;;;;;5112059;28;20268;-76
2023/08/28 05:50:45;;;;;;;7.33;4.90;;;;;;;;;;5111804;28;20276;-75
2023/08/28 05:53:11;;;;;;;5.57;5.07;;;;;;;;;;5111623;28;20196;-76
2023/08/28 05:55:38;;;;;;;6.87;5.27;;;;;;;;;;5098158;28;20200;-76
2023/08/28 05:58:07;;;;;;;4.80;4.33;;;;;;;;;;5111529;28;20195;-76
2023/08/28 06:00:34;;;;;;;5.97;4.90;;;;;;;;;;5111888;28;20281;-76
2023/08/28 06:03:00;;;;;;;9.27;4.87;;;;;;;;;;5111588;28;20314;-76
2023/08/28 06:05:27;;;;;;;4.63;4.23;;;;;;;;;;5111429;28;20199;-75
2023/08/28 06:07:54;;;;;;;8.80;4.93;;;;;;;;;;5111446;28;20586;-76
2023/08/28 06:10:21;;;;;;;5.83;5.30;;;;;;;;;;5111552;28;20720;-75
2023/08/28 06:12:48;;;;;;;5.07;4.23;;;;;;;;;;5110840;28;20595;-76
2023/08/28 06:15:17;;;;;;;4.60;4.20;;;;;;;;;;5110880;28;20203;-76
2023/08/28 06:17:44;;;;;;;6.90;3.93;;;;;;;;;;5111107;28;20991;-75
2023/08/28 06:20:11;;;;;;;5.90;4.97;;;;;;;;;;5084656;28;20621;-75
2023/08/28 06:22:38;;;;;;;6.03;5.13;;;;;;;;;;5110626;28;20227;-75
2023/08/28 06:25:06;;;;;;;9.20;5.57;;;;;;;;;;5111459;28;20673;-76
2023/08/28 06:27:33;;;;;;;4.47;4.13;;;;;;;;;;5110803;28;20286;-75
2023/08/28 06:30:00;;;;;;;6.83;4.83;;;;;;;;;;5111160;28;20257;-76
2023/08/28 06:32:28;;;;;;;4.67;4.20;;;;;;;;;;5111157;28;20195;-75
2023/08/28 06:34:55;;;;;;;6.83;3.80;;;;;;;;;;5111214;28;20210;-75
2023/08/28 06:37:22;;;;;;;6.30;4.77;;;;;;;;;;5110649;28;20196;-75
2023/08/28 06:39:49;;;;;;;4.67;4.10;;;;;;;;;;5110909;28;20685;-75
2023/08/28 06:42:15;;;;;;;6.97;4.37;;;;;;;;;;5109070;28;20318;-75
2023/08/28 06:44:42;;;;;;;5.77;5.17;;;;;;;;;;5099104;28;20248;-75
2023/08/28 06:47:09;;;;;;;6.50;5.07;;;;;;;;;;5108883;28;20203;-75
2023/08/28 06:49:37;;;;;;;6.60;5.00;;;;;;;;;;5100072;28;20628;-75
2023/08/28 06:52:05;;;;;;;8.07;4.00;;;;;;;;;;5110341;28;20200;-75
2023/08/28 06:54:32;;;;;;;5.47;4.10;;;;;;;;;;5111228;28;20246;-75
2023/08/28 06:56:59;;;;;;;8.33;4.20;;;;;;;;;;5110941;28;20199;-75
2023/08/28 06:59:26;;;;;;;4.63;4.13;;;;;;;;;;5110709;28;20286;-75
2023/08/28 07:01:54;;;;;;;7.03;4.50;;;;;;;;;;5110890;28;20195;-75
2023/08/28 07:04:20;;;;;;;4.80;4.40;;;;;;;;;;5111331;28;20198;-75
2023/08/28 07:06:49;;;;;;;6.20;4.43;;;;;;;;;;5110498;28;20674;-75
2023/08/28 07:09:16;;;;;;;6.90;4.70;;;;;;;;;;5111329;28;20211;-75
2023/08/28 07:11:43;;;;;;;5.60;5.10;;;;;;;;;;5110892;28;20207;-75
2023/08/28 07:14:11;;;;;;;5.43;4.43;;;;;;;;;;5110970;28;20286;-75
2023/08/28 07:16:38;;;;;;;4.37;3.93;;;;;;;;;;5110272;28;20592;-75
2023/08/28 07:19:05;;;;;;;8.00;4.27;;;;;;;;;;5110827;28;20196;-75
2023/08/28 07:21:31;;;;;;;5.87;4.30;;;;;;;;;;5110221;28;20669;-75
2023/08/28 07:23:59;;;;;;;9.20;4.80;;;;;;;;;;5110757;28;20223;-75
2023/08/28 07:26:26;;;;;;;4.97;3.83;;;;;;;;;;5114593;28;20258;-75
2023/08/28 07:28:53;;;;;;;5.10;4.60;;;;;;;;;;5114853;28;20223;-75
2023/08/28 07:31:20;;;;;;;7.20;4.30;;;;;;;;;;5114305;28;20195;-75
2023/08/28 07:33:46;;;;;;;6.67;3.80;;;;;;;;;;5115041;28;20199;-75
2023/08/28 07:36:13;;;;;;;3.57;3.20;;;;;;;;;;5114235;28;20192;-75
2023/08/28 07:38:43;;;;;;;5.40;3.73;;;;;;;;;;5114783;28;20230;-75
2023/08/28 07:41:11;;;;;;;6.57;3.60;;;;;;;;;;5113830;28;20202;-75
2023/08/28 07:43:38;;;;;;;3.83;3.20;;;;;;;;;;5114419;28;20782;-75
2023/08/28 07:46:05;;;;;;;3.20;3.00;;;;;;;;;;5113980;28;20200;-75
2023/08/28 07:48:32;;;;;;;8.13;3.37;;;;;;;;;;5114373;28;20203;-75
2023/08/28 07:50:58;;;;;;;3.47;3.15;;;;;;;;;;5113931;28;20207;-75
2023/08/28 07:53:25;;;;;;;4.05;3.50;;;;;;;;;;5113928;28;20207;-75
2023/08/28 07:55:52;;;;;;;8.63;3.70;;;;;;;;;;5114185;28;20207;-75
2023/08/28 07:58:20;;;;;;;4.05;3.55;;;;;;;;;;5113919;28;20236;-75
2023/08/28 08:00:47;;;;;;;3.63;3.15;;;;;;;;;;5113538;28;20195;-75
2023/08/28 08:03:13;;;;;;;4.30;3.60;;;;;;;;;;5113739;28;20297;-75
2023/08/28 08:05:41;;;;;;;3.50;3.20;;;;;;;;;;5113903;28;20216;-75
2023/08/28 08:08:08;;;;;;;3.83;3.53;;;;;;;;;;5114018;28;20199;-75
2023/08/28 08:10:36;;;;;;;4.93;3.25;;;;;;;;;;5113621;28;20215;-75
2023/08/28 08:13:04;;;;;;;4.32;3.83;;;;;;;;;;5113634;28;20759;-76
2023/08/28 08:15:32;;;;;;;3.90;3.58;;;;;;;;;;5113216;28;20200;-75
2023/08/28 08:17:59;;;;;;;4.20;3.70;;;;;;;;;;5113635;28;20286;-75
2023/08/28 08:20:26;;;;;;;3.65;3.17;;;;;;;;;;5113665;28;20192;-75
2023/08/28 08:22:53;;;;;;;4.07;2.97;;;;;;;;;;5113160;28;20280;-75
2023/08/28 08:25:22;;;;;;;5.35;3.92;;;;;;;;;;5113767;28;20196;-75
2023/08/28 08:27:49;;;;;;;5.45;3.47;;;;;;;;;;5113311;28;20233;-75
2023/08/28 08:30:16;;;;;;;3.72;3.42;;;;;;;;;;5113293;28;20199;-75
2023/08/28 08:32:44;;;;;;;4.03;3.45;;;;;;;;;;5113408;28;20195;-75
2023/08/28 08:35:12;;;;;;;3.60;3.05;;;;;;;;;;5113455;28;20226;-75
2023/08/28 08:37:39;;;;;;;4.70;3.20;;;;;;;;;;5112237;28;20279;-75
2023/08/28 08:40:11;;;;;;;3.75;3.20;;;;;;;;;;5113165;28;20633;-75
2023/08/28 08:42:38;;;;;;;3.35;3.05;;;;;;;;;;5113421;28;20655;-75
2023/08/28 08:45:06;;;;;;;3.83;3.42;;;;;;;;;;5113149;28;20200;-75
2023/08/28 08:47:33;;;;;;;5.32;3.50;;;;;;;;;;5113181;28;20210;-75
2023/08/28 08:50:03;;;;;;;3.15;2.67;;;;;;;;;;5113417;28;20626;-75
2023/08/28 08:52:32;;;;;;;3.28;2.97;;;;;;;;;;5112408;28;20316;-75
2023/08/28 08:55:10;;;;;;;3.95;3.08;;;;;;;;;;5113363;28;20204;-75
2023/08/28 08:57:38;;;;;;;3.40;3.03;;;;;;;;;;5113031;28;20262;-75
2023/08/28 09:00:11;;;;;;;3.35;2.58;;;;;;;;;;5112790;28;20286;-75
2023/08/28 09:02:38;;;;;;;2.47;2.28;;;;;;;;;;5112495;28;20203;-75
2023/08/28 09:05:09;;;;;;;3.03;2.75;;;;;;;;;;5112337;28;20227;-74
2023/08/28 09:07:36;;;;;;;3.08;2.70;;;;;;;;;;5113115;28;20200;-75
2023/08/28 09:10:03;;;;;;;3.20;2.60;;;;;;;;;;5112622;28;20207;-75
2023/08/28 09:12:31;;;;;;;2.78;2.40;;;;;;;;;;5112222;28;20199;-75
2023/08/28 09:14:59;;;;;;;3.35;2.53;;;;;;;;;;5112957;28;20261;-75
2023/08/28 09:17:27;;;;;;;2.53;2.33;;;;;;;;;;5113109;28;20350;-75
2023/08/28 09:19:54;;;;;;;3.47;3.17;;;;;;;;;;5112563;28;20199;-75
2023/08/28 09:22:25;;;;;;;2.97;2.67;;;;;;;;;;5112461;28;20211;-75
2023/08/28 09:24:52;;;;;;;4.78;2.70;;;;;;;;;;5112020;28;20698;-74
2023/08/28 09:27:19;;;;;;;4.03;3.70;;;;;;;;;;5112226;28;20199;-75
2023/08/28 09:29:46;;;;;;;2.60;2.40;;;;;;;;;;5111873;28;20206;-75
2023/08/28 09:32:13;;;;;;;3.38;3.08;;;;;;;;;;5111873;28;20697;-75
2023/08/28 09:34:41;;;;;;;3.20;2.67;;;;;;;;;;5111909;28;20206;-75
2023/08/28 09:37:11;;;;;;;4.25;3.05;;;;;;;;;;5112234;28;20199;-75
2023/08/28 09:39:42;;;;;;;3.63;3.33;;;;;;;;;;5085377;28;20199;-75
2023/08/28 09:42:10;;;;;;;8.85;3.15;;;;;;;;;;5112061;28;20196;-75
2023/08/28 09:44:37;;;;;;;3.67;3.38;;;;;;;;;;5111441;28;20272;-75
2023/08/28 09:47:05;;;;;;;4.35;3.15;;;;;;;;;;5111345;28;20566;-75
2023/08/28 09:49:31;;;;;;;3.78;3.08;;;;;;;;;;5112228;28;20199;-75
2023/08/28 09:52:00;;;;;;;4.57;2.50;;;;;;;;;;5111798;28;20204;-75
2023/08/28 09:54:27;;;;;;;3.35;3.05;;;;;;;;;;5112289;28;20223;-75
2023/08/28 09:56:55;;;;;;;8.50;6.22;;;;;;;;;;5111265;28;20256;-75
2023/08/28 09:59:22;;;;;;;10.25;6.25;;;;;;;;;;5112209;28;20205;-75
2023/08/28 10:01:49;;;;;;;7.30;5.80;;;;;;;;;;5111398;28;20219;-75
2023/08/28 10:04:20;;;;;;;4.78;3.55;;;;;;;;;;5111348;28;20928;-75
2023/08/28 10:06:49;;;;;;;3.17;2.92;;;;;;;;;;5111715;28;20203;-75
2023/08/28 10:09:18;;;;;;;3.13;2.88;;;;;;;;;;5111388;28;20204;-75
2023/08/28 10:11:46;;;;;;;3.45;3.10;;;;;;;;;;5111407;28;20278;-75
2023/08/28 10:14:14;;;;;;;2.92;2.72;;;;;;;;;;5111455;28;20192;-75
2023/08/28 10:16:43;;;;;;;4.80;3.20;;;;;;;;;;5110329;28;20601;-75
2023/08/28 10:19:16;;;;;;;6.18;4.13;;;;;;;;;;5111488;28;20693;-75
2023/08/28 10:21:43;;;;;;;3.42;3.13;;;;;;;;;;5111052;28;20708;-75
2023/08/28 10:24:11;;;;;;;3.10;2.80;;;;;;;;;;5110973;28;20223;-75
2023/08/28 10:26:41;;;;;;;16.00;3.50;;;;;;;;;;5111138;28;20228;-75
2023/08/28 10:29:09;;;;;;;3.78;3.28;;;;;;;;;;5111498;28;20225;-75
2023/08/28 10:31:37;;;;;;;2.58;2.38;;;;;;;;;;5111273;28;20207;-75
2023/08/28 10:34:05;;;;;;;4.07;3.72;;;;;;;;;;5110955;28;20203;-75
2023/08/28 10:36:33;;;;;;;3.63;3.33;;;;;;;;;;5110987;28;20196;-75
2023/08/28 10:39:01;;;;;;;3.25;2.95;;;;;;;;;;5110771;28;20696;-75
2023/08/28 10:41:31;;;;;;;4.40;3.13;;;;;;;;;;5111564;28;20253;-75
2023/08/28 10:44:00;;;;;;;3.15;2.85;;;;;;;;;;5111059;28;20300;-75
2023/08/28 10:46:28;;;;;;;4.78;2.88;;;;;;;;;;5111147;28;20666;-75
2023/08/28 10:48:58;;;;;;;6.55;2.65;;;;;;;;;;5111132;28;20195;-75
2023/08/28 10:51:30;;;;;;;2.65;2.45;;;;;;;;;;5110532;28;20267;-75
2023/08/28 10:54:01;;;;;;;2.97;2.63;;;;;;;;;;5111235;28;20206;-75
2023/08/28 10:56:33;;;;;;;3.90;2.30;;;;;;;;;;5111286;28;20202;-75
2023/08/28 10:59:25;;;;;;;3.15;2.90;;;;;;;;;;5110680;28;20200;-75
2023/08/28 11:01:54;;;;;;;6.65;2.78;;;;;;;;;;5115218;28;20202;-75
2023/08/28 11:04:23;;;;;;;3.30;2.67;;;;;;;;;;5115207;28;20219;-75
2023/08/28 11:06:50;;;;;;;11.10;3.10;;;;;;;;;;5114886;28;20192;-75
2023/08/28 11:09:37;;;;;;;3.53;2.67;;;;;;;;;;5115130;28;20195;-75
2023/08/28 11:12:28;;;;;;;2.60;2.40;;;;;;;;;;5115411;28;20187;-75
2023/08/28 11:15:03;;;;;;;4.40;3.05;;;;;;;;;;5099054;28;20350;-75
2023/08/28 11:17:32;;;;;;;5.03;3.15;;;;;;;;;;5115144;28;20206;-75
2023/08/28 11:20:12;;;;;;;5.32;2.75;;;;;;;;;;5114845;28;20203;-75
2023/08/28 11:22:40;;;;;;;5.50;3.53;;;;;;;;;;5114608;28;20199;-75
2023/08/28 11:25:09;;;;;;;5.35;4.00;;;;;;;;;;5114627;28;20226;-75
2023/08/28 11:27:43;;;;;;;3.72;2.58;;;;;;;;;;5113690;28;20590;-75
2023/08/28 11:30:11;;;;;;;4.55;2.80;;;;;;;;;;5114811;28;20693;-75
2023/08/28 11:32:42;;;;;;;3.20;2.83;;;;;;;;;;5113986;28;20643;-75
2023/08/28 11:35:13;;;;;;;2.90;2.70;;;;;;;;;;5114644;28;20245;-74
2023/08/28 11:37:41;;;;;;;4.97;3.03;;;;;;;;;;5114221;28;20286;-75
2023/08/28 11:40:09;;;;;;;4.50;2.80;;;;;;;;;;5114441;28;20203;-75
2023/08/28 11:42:36;;;;;;;2.92;2.53;;;;;;;;;;5114165;28;20715;-75
2023/08/28 11:45:04;;;;;;;2.65;2.45;;;;;;;;;;5114430;28;20651;-75
2023/08/28 11:47:32;;;;;;;2.65;2.45;;;;;;;;;;5113924;28;20207;-75
2023/08/28 11:50:00;;;;;;;3.85;2.97;;;;;;;;;;5114889;28;20204;-75
2023/08/28 11:52:28;;;;;;;3.40;3.10;;;;;;;;;;5114003;28;20218;-75
2023/08/28 11:55:00;;;;;;;2.78;2.58;;;;;;;;;;5113577;28;20634;-75
2023/08/28 11:57:27;;;;;;;7.40;3.17;;;;;;;;;;5087486;28;20203;-75
2023/08/28 11:59:55;;;;;;;2.72;2.53;;;;;;;;;;5114343;28;20207;-75
2023/08/28 12:02:22;;;;;;;4.15;2.78;;;;;;;;;;5113709;28;20195;-75
2023/08/28 12:04:49;;;;;;;5.30;3.33;;;;;;;;;;5113836;28;20234;-75
2023/08/28 12:07:17;;;;;;;2.88;2.63;;;;;;;;;;5113461;28;20196;-75
2023/08/28 12:09:46;;;;;;;5.15;3.17;;;;;;;;;;5112298;28;20242;-75
2023/08/28 12:12:14;;;;;;;3.65;3.00;;;;;;;;;;5101945;28;20199;-75
2023/08/28 12:14:43;;;;;;;3.80;3.15;;;;;;;;;;5113540;28;20203;-75
2023/08/28 12:17:13;;;;;;;2.70;2.50;;;;;;;;;;5113438;28;20291;-75
2023/08/28 12:19:40;;;;;;;3.20;2.90;;;;;;;;;;5113354;28;20677;-75
2023/08/28 12:22:08;;;;;;;4.25;2.88;;;;;;;;;;5113883;28;20200;-75
2023/08/28 12:24:39;;;;;;;3.38;2.92;;;;;;;;;;5113848;28;20224;-75
2023/08/28 12:27:08;;;;;;;3.20;2.90;;;;;;;;;;5113737;28;20260;-75
2023/08/28 12:29:35;;;;;;;7.10;2.70;;;;;;;;;;5113771;28;20758;-75
2023/08/28 12:32:05;;;;;;;5.25;3.05;;;;;;;;;;5113685;28;20203;-75
2023/08/28 12:34:37;;;;;;;3.03;2.83;;;;;;;;;;5114005;28;20593;-75
2023/08/28 12:37:05;;;;;;;5.47;3.20;;;;;;;;;;5113230;28;20199;-75
2023/08/28 12:39:31;;;;;;;6.45;3.53;;;;;;;;;;5113511;28;20261;-75
2023/08/28 12:41:58;;;;;;;4.05;3.50;;;;;;;;;;5113296;28;20196;-75
2023/08/28 12:44:28;;;;;;;3.35;2.88;;;;;;;;;;5106501;28;20216;-75
2023/08/28 12:46:55;;;;;;;3.08;2.78;;;;;;;;;;5106251;28;20192;-75
2023/08/28 12:49:22;;;;;;;5.18;3.30;;;;;;;;;;5113226;28;20195;-75
2023/08/28 12:51:50;;;;;;;3.97;2.55;;;;;;;;;;5112680;28;20677;-75
2023/08/28 12:54:19;;;;;;;3.05;2.78;;;;;;;;;;5112963;28;20199;-75
2023/08/28 12:56:47;;;;;;;3.65;3.20;;;;;;;;;;5112284;28;20691;-75
2023/08/28 12:59:14;;;;;;;5.55;3.22;;;;;;;;;;5113369;28;20195;-75
2023/08/28 13:01:42;;;;;;;3.70;3.40;;;;;;;;;;5112674;28;20208;-75
2023/08/28 13:04:09;;;;;;;5.20;3.63;;;;;;;;;;5113089;28;20254;-75
2023/08/28 13:06:37;;;;;;;8.15;3.90;;;;;;;;;;5112608;28;20252;-75
2023/08/28 13:09:05;;;;;;;6.05;2.97;;;;;;;;;;5112994;28;20223;-75
2023/08/28 13:11:33;;;;;;;3.75;3.35;;;;;;;;;;5112572;28;20589;-75
2023/08/28 13:14:00;;;;;;;3.28;2.97;;;;;;;;;;5112817;28;20624;-75
2023/08/28 13:16:27;;;;;;;3.42;3.03;;;;;;;;;;5112660;28;20282;-75
2023/08/28 13:18:55;;;;;;;4.25;3.13;;;;;;;;;;5113094;28;20200;-75
2023/08/28 13:21:22;;;;;;;4.57;2.80;;;;;;;;;;5112280;28;20208;-75
2023/08/28 13:23:49;;;;;;;3.25;3.05;;;;;;;;;;5111909;28;20195;-75
2023/08/28 13:26:16;;;;;;;3.83;3.33;;;;;;;;;;5112582;28;20592;-75
2023/08/28 13:28:43;;;;;;;3.63;3.30;;;;;;;;;;5112449;28;20231;-76
2023/08/28 13:31:13;;;;;;;5.40;3.58;;;;;;;;;;5112603;28;20200;-75
2023/08/28 13:33:40;;;;;;;3.03;2.83;;;;;;;;;;5112041;28;20562;-75
2023/08/28 13:36:08;;;;;;;4.97;3.03;;;;;;;;;;5112390;28;20196;-75
2023/08/28 13:38:35;;;;;;;4.13;3.20;;;;;;;;;;5112702;28;20199;-75
2023/08/28 13:41:02;;;;;;;9.30;3.33;;;;;;;;;;5111868;28;20203;-75
2023/08/28 13:43:29;;;;;;;4.15;3.38;;;;;;;;;;5112376;28;20214;-75
2023/08/28 13:45:57;;;;;;;5.18;3.20;;;;;;;;;;5111676;28;20219;-75
2023/08/28 13:48:23;;;;;;;3.65;3.15;;;;;;;;;;5112492;28;20203;-75
2023/08/28 13:50:51;;;;;;;10.40;4.05;;;;;;;;;;5111996;28;20207;-75
2023/08/28 13:53:19;;;;;;;5.03;3.42;;;;;;;;;;5111862;28;20217;-75
2023/08/28 13:55:47;;;;;;;3.13;2.78;;;;;;;;;;5111760;28;20207;-75
2023/08/28 13:58:15;;;;;;;5.50;3.00;;;;;;;;;;5111956;28;20290;-75
2023/08/28 14:00:43;;;;;;;3.20;2.50;;;;;;;;;;5111794;28;20238;-75
2023/08/28 14:03:10;;;;;;;9.65;3.90;;;;;;;;;;5098255;28;20697;-75
2023/08/28 14:05:37;;;;;;;5.20;3.05;;;;;;;;;;5111617;28;20223;-74
2023/08/28 14:08:04;;;;;;;3.97;3.30;;;;;;;;;;5111640;28;20203;-75
2023/08/28 14:10:32;;;;;;;3.70;3.40;;;;;;;;;;5111909;28;20195;-75
2023/08/28 14:12:59;;;;;;;3.08;2.78;;;;;;;;;;5111047;28;20284;-75
2023/08/28 14:15:25;;;;;;;3.20;2.80;;;;;;;;;;5111631;28;20195;-75
2023/08/28 14:17:52;;;;;;;3.63;2.85;;;;;;;;;;5111590;28;20256;-75
2023/08/28 14:20:19;;;;;;;3.60;2.80;;;;;;;;;;5111458;28;20195;-75
2023/08/28 14:22:46;;;;;;;3.30;3.03;;;;;;;;;;5111269;28;20207;-75
2023/08/28 14:25:13;;;;;;;3.05;2.80;;;;;;;;;;5110919;28;20613;-75
2023/08/28 14:27:41;;;;;;;5.22;2.90;;;;;;;;;;5111129;28;20631;-75
2023/08/28 14:30:09;;;;;;;4.88;2.80;;;;;;;;;;5111602;28;20199;-75
2023/08/28 14:32:35;;;;;;;4.95;2.83;;;;;;;;;;5110742;28;20210;-75
2023/08/28 14:35:03;;;;;;;6.25;3.63;;;;;;;;;;5110551;28;20244;-75
2023/08/28 14:37:32;;;;;;;4.30;3.13;;;;;;;;;;5109753;28;20286;-75
2023/08/28 14:39:59;;;;;;;3.25;2.95;;;;;;;;;;5099679;28;20286;-75
2023/08/28 14:42:26;;;;;;;5.60;3.10;;;;;;;;;;5108453;28;20566;-75
2023/08/28 14:44:54;;;;;;;3.08;2.88;;;;;;;;;;5087778;28;20216;-75
2023/08/28 14:47:21;;;;;;;3.08;2.88;;;;;;;;;;5093481;28;20204;-75